createdAt,value
2022-12-28T00:00:53.713Z,10.50
2022-12-28T00:01:53.717Z,12.90
2022-12-28T00:02:53.807Z,13.20
2022-12-28T00:03:53.747Z,9.60
2022-12-28T00:04:53.648Z,10.40
2022-12-28T00:05:53.844Z,11.50
2022-12-28T00:06:53.622Z,12.00
2022-12-28T00:07:53.628Z,12.60
2022-12-28T00:08:53.678Z,9.60
2022-12-28T00:11:07.262Z,10.80
2022-12-28T00:11:09.046Z,10.80
2022-12-28T00:12:21.429Z,11.80
2022-12-28T00:12:53.557Z,11.30
2022-12-28T00:13:53.571Z,12.20
2022-12-28T00:14:53.596Z,12.00
2022-12-28T00:15:53.722Z,11.30
2022-12-28T00:16:53.659Z,11.40
2022-12-28T00:17:53.543Z,11.70
2022-12-28T00:18:53.472Z,9.50
2022-12-28T00:19:53.558Z,8.40
2022-12-28T00:22:02.874Z,11.90
2022-12-28T00:23:03.020Z,11.30
2022-12-28T00:24:02.998Z,11.50
2022-12-28T00:25:02.825Z,12.20
2022-12-28T00:26:02.849Z,14.80
2022-12-28T00:27:02.854Z,12.50
2022-12-28T00:28:02.902Z,14.30
2022-12-28T00:29:05.258Z,11.80
2022-12-28T00:30:02.733Z,12.70
2022-12-28T00:31:02.714Z,15.10
2022-12-28T00:32:02.789Z,11.70
2022-12-28T00:33:02.749Z,13.10
2022-12-28T00:34:02.690Z,11.50
2022-12-28T00:35:02.824Z,12.10
2022-12-28T00:36:02.645Z,13.00
2022-12-28T00:37:08.658Z,11.40
2022-12-28T00:39:13.644Z,11.00
2022-12-28T00:40:16.452Z,11.10
2022-12-28T00:41:14.569Z,8.10
2022-12-28T00:42:13.607Z,12.00
2022-12-28T00:43:13.427Z,11.70
2022-12-28T00:44:13.432Z,10.80
2022-12-28T00:45:13.531Z,12.20
2022-12-28T00:46:13.508Z,9.70
2022-12-28T00:47:13.426Z,8.60
2022-12-28T00:48:13.408Z,8.60
2022-12-28T00:49:13.631Z,8.60
2022-12-28T00:50:13.341Z,9.60
2022-12-28T00:51:13.440Z,11.20
2022-12-28T00:52:13.447Z,8.90
2022-12-28T00:53:13.344Z,11.50
2022-12-28T00:54:13.361Z,9.20
2022-12-28T00:55:13.275Z,9.20
2022-12-28T00:56:13.267Z,8.10
2022-12-28T00:57:15.110Z,8.70
2022-12-28T00:58:13.319Z,7.90
2022-12-28T00:59:13.217Z,9.70
2022-12-28T01:00:13.285Z,10.00
2022-12-28T01:01:13.401Z,8.10
2022-12-28T01:02:13.301Z,9.50
2022-12-28T01:03:13.226Z,8.10
2022-12-28T01:04:13.322Z,7.00
2022-12-28T01:05:13.155Z,7.30
2022-12-28T01:06:13.136Z,7.50
2022-12-28T01:07:13.234Z,8.90
2022-12-28T01:08:13.125Z,8.10
2022-12-28T01:09:13.140Z,9.20
2022-12-28T01:10:13.233Z,9.60
2022-12-28T01:11:13.102Z,7.70
2022-12-28T01:12:13.064Z,6.60
2022-12-28T01:13:13.118Z,8.40
2022-12-28T01:14:13.019Z,7.60
2022-12-28T01:15:13.077Z,9.10
2022-12-28T01:16:13.082Z,7.60
2022-12-28T01:17:13.043Z,8.40
2022-12-28T01:18:12.969Z,7.20
2022-12-28T01:19:13.445Z,9.80
2022-12-28T01:20:12.981Z,7.60
2022-12-28T01:21:12.989Z,7.80
2022-12-28T01:22:12.973Z,8.10
2022-12-28T01:23:12.893Z,7.60
2022-12-28T01:24:12.923Z,6.70
2022-12-28T01:25:12.870Z,7.10
2022-12-28T01:26:12.850Z,7.50
2022-12-28T01:27:12.953Z,6.40
2022-12-28T01:28:12.949Z,9.00
2022-12-28T01:29:12.852Z,8.80
2022-12-28T01:30:12.885Z,7.50
2022-12-28T01:31:12.896Z,6.50
2022-12-28T01:32:12.797Z,10.10
2022-12-28T01:33:12.873Z,8.10
2022-12-28T01:34:12.791Z,6.90
2022-12-28T01:35:12.741Z,7.60
2022-12-28T01:36:12.742Z,8.80
2022-12-28T01:37:12.937Z,5.30
2022-12-28T01:38:12.727Z,6.60
2022-12-28T01:39:12.691Z,6.20
2022-12-28T01:40:12.688Z,8.00
2022-12-28T01:41:12.662Z,7.80
2022-12-28T01:42:12.620Z,6.50
2022-12-28T01:43:12.639Z,7.80
2022-12-28T01:44:12.682Z,8.30
2022-12-28T01:45:12.672Z,6.40
2022-12-28T01:46:12.682Z,6.10
2022-12-28T01:47:12.694Z,6.30
2022-12-28T01:48:12.579Z,7.60
2022-12-28T01:49:12.581Z,7.10
2022-12-28T01:50:12.559Z,6.70
2022-12-28T01:51:12.529Z,5.80
2022-12-28T01:52:12.597Z,7.80
2022-12-28T01:53:12.500Z,5.10
2022-12-28T01:54:12.484Z,8.00
2022-12-28T01:55:12.463Z,5.80
2022-12-28T01:56:12.534Z,6.70
2022-12-28T01:57:12.443Z,5.40
2022-12-28T01:58:12.513Z,5.30
2022-12-28T01:59:12.500Z,7.60
2022-12-28T02:00:12.374Z,5.90
2022-12-28T02:01:12.450Z,6.60
2022-12-28T02:02:12.502Z,5.20
2022-12-28T02:03:12.435Z,5.40
2022-12-28T02:04:12.416Z,5.20
2022-12-28T02:05:12.360Z,4.80
2022-12-28T02:06:12.380Z,6.30
2022-12-28T02:07:12.326Z,6.30
2022-12-28T02:08:12.355Z,5.30
2022-12-28T02:09:12.408Z,7.70
2022-12-28T02:10:42.618Z,4.90
2022-12-28T02:11:13.278Z,5.90
2022-12-28T02:12:12.327Z,7.30
2022-12-28T02:13:12.283Z,5.30
2022-12-28T02:14:12.237Z,5.00
2022-12-28T02:15:12.272Z,6.20
2022-12-28T02:16:12.246Z,5.30
2022-12-28T02:17:12.169Z,5.30
2022-12-28T02:18:12.217Z,6.10
2022-12-28T02:19:12.272Z,8.60
2022-12-28T02:20:12.117Z,5.70
2022-12-28T02:21:12.110Z,4.90
2022-12-28T02:22:12.254Z,4.50
2022-12-28T02:23:12.108Z,5.10
2022-12-28T02:24:12.142Z,6.70
2022-12-28T02:25:14.055Z,6.60
2022-12-28T02:26:12.035Z,6.70
2022-12-28T02:27:12.044Z,4.30
2022-12-28T02:28:12.176Z,4.80
2022-12-28T02:29:12.042Z,3.50
2022-12-28T02:30:12.075Z,5.70
2022-12-28T02:31:12.067Z,4.10
2022-12-28T02:32:11.984Z,5.00
2022-12-28T02:33:11.959Z,4.50
2022-12-28T02:34:11.978Z,6.60
2022-12-28T02:35:16.598Z,5.10
2022-12-28T02:36:18.169Z,3.80
2022-12-28T02:37:12.938Z,4.80
2022-12-28T02:38:11.936Z,4.70
2022-12-28T02:39:11.880Z,5.20
2022-12-28T02:40:11.906Z,5.20
2022-12-28T02:41:11.889Z,5.20
2022-12-28T02:42:11.923Z,5.30
2022-12-28T02:43:11.817Z,4.20
2022-12-28T02:44:11.926Z,4.80
2022-12-28T02:45:11.818Z,4.30
2022-12-28T02:46:11.868Z,4.60
2022-12-28T02:47:11.856Z,4.00
2022-12-28T02:48:11.761Z,3.90
2022-12-28T02:49:11.746Z,2.90
2022-12-28T02:50:11.907Z,3.70
2022-12-28T02:51:11.715Z,4.30
2022-12-28T02:52:11.692Z,4.90
2022-12-28T02:53:11.728Z,5.10
2022-12-28T02:54:11.714Z,5.40
2022-12-28T02:55:11.674Z,3.80
2022-12-28T02:56:11.689Z,3.70
2022-12-28T02:57:11.698Z,3.70
2022-12-28T02:58:11.705Z,4.30
2022-12-28T02:59:11.992Z,5.10
2022-12-28T03:00:11.623Z,3.60
2022-12-28T03:01:11.739Z,7.10
2022-12-28T03:02:11.795Z,3.40
2022-12-28T03:03:11.668Z,5.20
2022-12-28T03:04:11.553Z,4.70
2022-12-28T03:05:11.554Z,3.70
2022-12-28T03:06:17.571Z,4.40
2022-12-28T03:07:12.544Z,3.40
2022-12-28T03:08:11.547Z,5.00
2022-12-28T03:09:11.565Z,4.20
2022-12-28T03:10:11.626Z,4.10
2022-12-28T03:11:11.466Z,2.90
2022-12-28T03:12:11.484Z,6.20
2022-12-28T03:13:11.569Z,4.70
2022-12-28T03:14:11.422Z,3.00
2022-12-28T03:15:11.413Z,4.10
2022-12-28T03:16:16.008Z,3.00
2022-12-28T03:17:11.381Z,4.40
2022-12-28T03:18:11.414Z,3.40
2022-12-28T03:19:11.422Z,4.40
2022-12-28T03:20:27.274Z,4.70
2022-12-28T03:21:12.320Z,3.90
2022-12-28T03:22:11.343Z,4.40
2022-12-28T03:23:11.477Z,4.00
2022-12-28T03:24:11.419Z,4.40
2022-12-28T03:25:11.320Z,5.20
2022-12-28T03:26:11.397Z,4.70
2022-12-28T03:27:11.304Z,4.00
2022-12-28T03:28:11.270Z,4.50
2022-12-28T03:29:11.364Z,4.40
2022-12-28T03:30:11.298Z,4.30
2022-12-28T03:31:11.252Z,4.80
2022-12-28T03:32:11.231Z,4.10
2022-12-28T03:33:11.210Z,3.30
2022-12-28T03:34:11.160Z,4.20
2022-12-28T03:35:11.199Z,5.50
2022-12-28T03:36:11.132Z,3.70
2022-12-28T03:37:11.158Z,4.20
2022-12-28T03:38:11.231Z,3.70
2022-12-28T03:39:11.178Z,5.10
2022-12-28T03:40:11.180Z,4.70
2022-12-28T03:41:11.181Z,4.70
2022-12-28T03:42:11.114Z,4.30
2022-12-28T03:43:11.121Z,4.80
2022-12-28T03:44:11.094Z,4.40
2022-12-28T03:45:11.028Z,4.00
2022-12-28T03:46:11.178Z,4.30
2022-12-28T03:47:11.192Z,5.00
2022-12-28T03:48:10.993Z,4.60
2022-12-28T03:49:10.976Z,5.20
2022-12-28T03:50:11.138Z,3.50
2022-12-28T03:51:10.940Z,3.80
2022-12-28T03:52:10.921Z,3.50
2022-12-28T03:53:10.965Z,3.00
2022-12-28T03:54:10.878Z,5.30
2022-12-28T03:55:10.887Z,4.30
2022-12-28T03:56:10.944Z,3.90
2022-12-28T03:57:10.845Z,4.20
2022-12-28T03:58:10.844Z,2.90
2022-12-28T03:59:10.995Z,4.50
2022-12-28T04:00:10.812Z,4.10
2022-12-28T04:01:11.127Z,3.90
2022-12-28T04:02:11.075Z,3.80
2022-12-28T04:03:10.877Z,4.80
2022-12-28T04:04:10.817Z,2.80
2022-12-28T04:05:10.929Z,3.30
2022-12-28T04:06:11.733Z,3.30
2022-12-28T04:07:10.728Z,3.60
2022-12-28T04:08:10.779Z,3.80
2022-12-28T04:09:10.734Z,5.50
2022-12-28T04:10:10.685Z,3.30
2022-12-28T04:11:10.813Z,2.90
2022-12-28T04:12:10.671Z,2.90
2022-12-28T04:13:10.653Z,2.80
2022-12-28T04:14:11.415Z,3.50
2022-12-28T04:15:10.625Z,3.00
2022-12-28T04:16:10.644Z,3.00
2022-12-28T04:17:22.213Z,2.80
2022-12-28T04:18:10.625Z,3.00
2022-12-28T04:19:10.568Z,2.40
2022-12-28T04:20:10.608Z,4.80
2022-12-28T04:21:10.534Z,3.60
2022-12-28T04:22:10.549Z,4.10
2022-12-28T04:23:10.628Z,2.70
2022-12-28T04:24:10.477Z,2.20
2022-12-28T04:25:10.481Z,2.10
2022-12-28T04:26:10.566Z,4.60
2022-12-28T04:27:10.491Z,3.20
2022-12-28T04:28:10.453Z,3.00
2022-12-28T04:29:10.456Z,3.50
2022-12-28T04:30:10.416Z,3.90
2022-12-28T04:31:10.439Z,2.10
2022-12-28T04:32:10.447Z,3.80
2022-12-28T04:33:10.394Z,2.70
2022-12-28T04:34:10.434Z,3.70
2022-12-28T04:35:10.404Z,2.50
2022-12-28T04:36:10.343Z,3.10
2022-12-28T04:37:10.334Z,3.20
2022-12-28T04:38:10.348Z,2.10
2022-12-28T04:39:10.337Z,2.40
2022-12-28T04:40:10.274Z,2.90
2022-12-28T04:41:10.271Z,2.70
2022-12-28T04:42:10.369Z,3.60
2022-12-28T04:43:10.249Z,1.30
2022-12-28T04:44:10.272Z,2.20
2022-12-28T04:45:10.241Z,3.60
2022-12-28T04:46:10.278Z,2.10
2022-12-28T04:47:10.193Z,2.20
2022-12-28T04:48:10.285Z,2.10
2022-12-28T04:49:10.199Z,2.20
2022-12-28T04:50:10.196Z,3.00
2022-12-28T04:51:10.287Z,3.00
2022-12-28T04:52:10.162Z,3.30
2022-12-28T04:53:11.044Z,2.80
2022-12-28T04:54:10.110Z,2.40
2022-12-28T04:55:31.348Z,2.60
2022-12-28T04:56:11.107Z,2.20
2022-12-28T04:57:10.095Z,2.50
2022-12-28T04:58:10.164Z,3.60
2022-12-28T04:59:10.047Z,3.70
2022-12-28T05:00:10.052Z,1.90
2022-12-28T05:01:10.155Z,2.60
2022-12-28T05:02:10.311Z,2.90
2022-12-28T05:03:10.028Z,2.40
2022-12-28T05:04:09.974Z,2.30
2022-12-28T05:05:10.001Z,2.70
2022-12-28T05:06:09.941Z,1.20
2022-12-28T05:07:09.935Z,2.70
2022-12-28T05:08:09.950Z,4.10
2022-12-28T05:09:09.933Z,4.20
2022-12-28T05:10:09.929Z,3.10
2022-12-28T05:11:09.906Z,3.30
2022-12-28T05:12:09.892Z,4.50
2022-12-28T05:13:09.872Z,8.50
2022-12-28T05:14:19.414Z,3.30
2022-12-28T05:15:09.813Z,4.10
2022-12-28T05:16:09.842Z,1.80
2022-12-28T05:17:09.795Z,2.60
2022-12-28T05:18:09.966Z,4.50
2022-12-28T05:19:09.805Z,3.50
2022-12-28T05:20:09.811Z,2.60
2022-12-28T05:21:09.845Z,1.70
2022-12-28T05:22:09.752Z,3.40
2022-12-28T05:23:09.720Z,2.20
2022-12-28T05:24:09.724Z,2.60
2022-12-28T05:25:09.730Z,1.80
2022-12-28T05:26:09.714Z,2.80
2022-12-28T05:27:09.652Z,2.10
2022-12-28T05:28:09.672Z,2.60
2022-12-28T05:29:09.681Z,1.70
2022-12-28T05:30:09.630Z,2.10
2022-12-28T05:31:09.669Z,2.50
2022-12-28T05:32:09.880Z,2.60
2022-12-28T05:33:09.580Z,3.20
2022-12-28T05:34:09.611Z,9.90
2022-12-28T05:35:09.603Z,3.10
2022-12-28T05:36:09.554Z,3.40
2022-12-28T05:37:09.588Z,1.50
2022-12-28T05:38:09.633Z,3.60
2022-12-28T05:39:09.536Z,2.20
2022-12-28T05:40:09.516Z,1.70
2022-12-28T05:41:09.624Z,2.90
2022-12-28T05:42:09.485Z,1.70
2022-12-28T05:43:09.459Z,2.50
2022-12-28T05:44:09.499Z,3.00
2022-12-28T05:45:09.448Z,1.80
2022-12-28T05:46:09.412Z,2.00
2022-12-28T05:47:09.486Z,1.60
2022-12-28T05:48:09.452Z,3.90
2022-12-28T05:49:09.388Z,3.00
2022-12-28T05:50:09.386Z,2.10
2022-12-28T05:51:09.419Z,1.80
2022-12-28T05:52:09.432Z,3.00
2022-12-28T05:53:09.319Z,2.30
2022-12-28T05:54:09.351Z,5.50
2022-12-28T05:55:09.347Z,3.50
2022-12-28T05:56:13.915Z,4.20
2022-12-28T05:57:10.407Z,1.60
2022-12-28T05:58:09.273Z,1.90
2022-12-28T05:59:09.259Z,2.90
2022-12-28T06:00:09.244Z,3.90
2022-12-28T06:01:09.394Z,3.20
2022-12-28T06:02:09.389Z,2.50
2022-12-28T06:03:09.367Z,3.20
2022-12-28T06:04:09.263Z,2.70
2022-12-28T06:05:09.170Z,2.30
2022-12-28T06:06:09.175Z,3.30
2022-12-28T06:07:09.174Z,2.20
2022-12-28T06:08:09.188Z,4.30
2022-12-28T06:09:09.109Z,2.00
2022-12-28T06:10:09.172Z,2.80
2022-12-28T06:11:09.119Z,2.50
2022-12-28T06:12:09.083Z,3.80
2022-12-28T06:13:09.075Z,2.70
2022-12-28T06:14:09.107Z,4.20
2022-12-28T06:15:09.108Z,1.60
2022-12-28T06:16:09.275Z,2.30
2022-12-28T06:17:09.010Z,3.30
2022-12-28T06:18:08.985Z,2.90
2022-12-28T06:19:09.027Z,3.20
2022-12-28T06:20:08.999Z,2.40
2022-12-28T06:21:08.947Z,2.60
2022-12-28T06:22:09.020Z,2.40
2022-12-28T06:23:08.912Z,2.10
2022-12-28T06:24:08.926Z,2.90
2022-12-28T06:25:08.909Z,3.00
2022-12-28T06:26:08.896Z,2.30
2022-12-28T06:27:08.949Z,2.10
2022-12-28T06:28:08.994Z,2.00
2022-12-28T06:29:08.874Z,1.80
2022-12-28T06:30:08.914Z,4.40
2022-12-28T06:31:08.880Z,1.90
2022-12-28T06:32:08.893Z,3.00
2022-12-28T06:33:08.784Z,3.60
2022-12-28T06:34:08.934Z,2.20
2022-12-28T06:35:08.793Z,1.80
2022-12-28T06:36:08.764Z,2.50
2022-12-28T06:37:09.018Z,2.00
2022-12-28T06:38:08.760Z,4.40
2022-12-28T06:39:08.757Z,3.00
2022-12-28T06:40:08.720Z,1.50
2022-12-28T06:41:13.872Z,3.40
2022-12-28T06:42:09.689Z,3.70
2022-12-28T06:43:08.835Z,4.00
2022-12-28T06:44:08.675Z,1.90
2022-12-28T06:45:08.687Z,1.60
2022-12-28T06:46:08.785Z,2.10
2022-12-28T06:47:08.675Z,1.50
2022-12-28T06:48:08.635Z,1.90
2022-12-28T06:49:08.639Z,2.30
2022-12-28T06:50:08.668Z,3.00
2022-12-28T06:51:08.667Z,2.60
2022-12-28T06:52:08.752Z,2.70
2022-12-28T06:53:08.539Z,3.70
2022-12-28T06:54:08.551Z,2.30
2022-12-28T06:55:08.603Z,4.10
2022-12-28T06:56:08.522Z,1.10
2022-12-28T06:57:08.509Z,2.80
2022-12-28T06:58:08.638Z,2.50
2022-12-28T06:59:08.451Z,2.20
2022-12-28T07:00:08.434Z,2.80
2022-12-28T07:01:08.650Z,6.00
2022-12-28T07:02:08.678Z,9.90
2022-12-28T07:03:08.491Z,7.70
2022-12-28T07:04:08.498Z,6.30
2022-12-28T07:05:08.408Z,5.20
2022-12-28T07:06:08.371Z,8.10
2022-12-28T07:07:08.372Z,4.50
2022-12-28T07:08:12.509Z,3.70
2022-12-28T07:09:09.233Z,3.00
2022-12-28T07:10:08.343Z,2.10
2022-12-28T07:11:08.283Z,3.80
2022-12-28T07:12:08.271Z,5.20
2022-12-28T07:13:08.477Z,2.70
2022-12-28T07:14:08.271Z,3.50
2022-12-28T07:15:08.295Z,2.80
2022-12-28T07:16:08.245Z,2.10
2022-12-28T07:17:08.223Z,1.90
2022-12-28T07:18:08.191Z,2.60
2022-12-28T07:19:08.367Z,4.50
2022-12-28T07:20:08.266Z,2.00
2022-12-28T07:21:08.213Z,2.20
2022-12-28T07:22:08.277Z,1.90
2022-12-28T07:23:08.141Z,5.40
2022-12-28T07:24:08.130Z,1.60
2022-12-28T07:25:08.162Z,3.80
2022-12-28T07:26:08.130Z,2.70
2022-12-28T07:27:08.113Z,3.20
2022-12-28T07:28:24.869Z,4.20
2022-12-28T07:29:09.065Z,1.90
2022-12-28T07:30:08.149Z,2.70
2022-12-28T07:31:08.298Z,2.90
2022-12-28T07:32:08.058Z,3.30
2022-12-28T07:33:08.197Z,1.90
2022-12-28T07:34:08.049Z,1.60
2022-12-28T07:35:08.068Z,1.90
2022-12-28T07:36:07.992Z,1.70
2022-12-28T07:37:07.994Z,3.60
2022-12-28T07:38:08.004Z,2.20
2022-12-28T07:39:07.928Z,2.90
2022-12-28T07:40:07.949Z,1.20
2022-12-28T07:41:08.073Z,3.90
2022-12-28T07:42:08.078Z,3.30
2022-12-28T07:43:07.876Z,1.70
2022-12-28T07:44:08.000Z,2.30
2022-12-28T07:45:07.878Z,2.50
2022-12-28T07:46:07.892Z,3.10
2022-12-28T07:47:07.853Z,2.80
2022-12-28T07:48:07.819Z,3.10
2022-12-28T07:49:07.934Z,1.80
2022-12-28T07:50:07.828Z,2.10
2022-12-28T07:51:07.794Z,2.20
2022-12-28T07:52:07.807Z,1.80
2022-12-28T07:53:07.901Z,2.70
2022-12-28T07:54:07.764Z,2.70
2022-12-28T07:55:07.730Z,1.70
2022-12-28T07:56:07.885Z,3.30
2022-12-28T07:57:07.676Z,3.10
2022-12-28T07:58:07.933Z,1.70
2022-12-28T07:59:22.724Z,1.20
2022-12-28T08:00:08.732Z,2.60
2022-12-28T08:01:07.718Z,2.80
2022-12-28T08:02:08.093Z,3.10
2022-12-28T08:03:07.607Z,3.70
2022-12-28T08:04:07.626Z,2.30
2022-12-28T08:05:07.704Z,2.80
2022-12-28T08:06:07.627Z,2.40
2022-12-28T08:07:07.552Z,1.90
2022-12-28T08:08:07.626Z,2.30
2022-12-28T08:09:07.578Z,2.50
2022-12-28T08:10:07.534Z,2.60
2022-12-28T08:11:07.543Z,3.20
2022-12-28T08:12:07.607Z,2.30
2022-12-28T08:13:07.586Z,1.50
2022-12-28T08:14:07.546Z,2.20
2022-12-28T08:15:07.441Z,3.00
2022-12-28T08:16:07.516Z,3.30
2022-12-28T08:17:07.441Z,3.80
2022-12-28T08:18:07.470Z,2.80
2022-12-28T08:19:07.469Z,1.40
2022-12-28T08:20:07.637Z,2.70
2022-12-28T08:21:07.370Z,2.30
2022-12-28T08:22:07.477Z,3.70
2022-12-28T08:23:07.462Z,3.60
2022-12-28T08:24:07.337Z,3.40
2022-12-28T08:25:07.320Z,2.60
2022-12-28T08:26:07.578Z,2.30
2022-12-28T08:27:07.359Z,2.30
2022-12-28T08:28:07.341Z,1.40
2022-12-28T08:29:07.447Z,3.20
2022-12-28T08:30:07.549Z,1.50
2022-12-28T08:31:07.297Z,2.70
2022-12-28T08:32:07.427Z,3.10
2022-12-28T08:33:07.324Z,2.70
2022-12-28T08:34:07.255Z,1.00
2022-12-28T08:35:07.373Z,1.80
2022-12-28T08:36:07.217Z,3.50
2022-12-28T08:37:07.164Z,1.90
2022-12-28T08:38:07.266Z,2.90
2022-12-28T08:39:07.208Z,2.40
2022-12-28T08:40:07.152Z,2.90
2022-12-28T08:41:07.246Z,2.40
2022-12-28T08:42:07.150Z,2.20
2022-12-28T08:43:07.092Z,2.20
2022-12-28T08:44:07.305Z,3.30
2022-12-28T08:45:07.124Z,2.20
2022-12-28T08:46:07.179Z,1.50
2022-12-28T08:47:07.047Z,2.70
2022-12-28T08:48:07.090Z,3.70
2022-12-28T08:49:07.105Z,2.20
2022-12-28T08:50:07.111Z,2.40
2022-12-28T08:51:07.164Z,2.00
2022-12-28T08:52:06.977Z,2.70
2022-12-28T08:53:06.974Z,3.60
2022-12-28T08:54:06.917Z,4.40
2022-12-28T08:55:38.364Z,1.60
2022-12-28T08:56:07.937Z,2.80
2022-12-28T08:57:06.915Z,3.70
2022-12-28T08:58:06.897Z,4.10
2022-12-28T08:59:06.963Z,2.80
2022-12-28T09:00:06.879Z,4.20
2022-12-28T09:01:07.091Z,2.70
2022-12-28T09:02:06.922Z,2.00
2022-12-28T09:03:06.928Z,3.10
2022-12-28T09:04:06.791Z,3.70
2022-12-28T09:05:06.878Z,2.80
2022-12-28T09:06:06.815Z,2.80
2022-12-28T09:07:06.788Z,2.70
2022-12-28T09:08:06.854Z,4.20
2022-12-28T09:09:20.231Z,2.20
2022-12-28T09:10:06.920Z,3.40
2022-12-28T09:11:06.715Z,2.60
2022-12-28T09:12:06.717Z,3.20
2022-12-28T09:13:06.667Z,3.40
2022-12-28T09:14:06.660Z,2.40
2022-12-28T09:15:06.670Z,4.10
2022-12-28T09:16:06.652Z,2.40
2022-12-28T09:17:06.660Z,2.40
2022-12-28T09:18:06.716Z,1.90
2022-12-28T09:19:06.634Z,2.80
2022-12-28T09:20:06.720Z,2.80
2022-12-28T09:21:06.698Z,3.60
2022-12-28T09:22:06.623Z,2.10
2022-12-28T09:23:06.656Z,2.10
2022-12-28T09:24:06.616Z,2.50
2022-12-28T09:25:07.669Z,3.00
2022-12-28T09:26:06.562Z,3.00
2022-12-28T09:27:06.503Z,2.90
2022-12-28T09:28:06.607Z,1.80
2022-12-28T09:29:06.530Z,2.70
2022-12-28T09:30:06.496Z,1.80
2022-12-28T09:31:06.661Z,2.60
2022-12-28T09:32:06.459Z,3.60
2022-12-28T09:33:06.445Z,1.50
2022-12-28T09:35:07.511Z,5.10
2022-12-28T09:36:06.373Z,2.90
2022-12-28T09:37:06.442Z,2.00
2022-12-28T09:38:06.516Z,3.00
2022-12-28T09:39:06.651Z,2.60
2022-12-28T09:40:06.408Z,2.50
2022-12-28T09:41:06.639Z,4.20
2022-12-28T09:42:06.280Z,4.30
2022-12-28T09:43:06.271Z,2.90
2022-12-28T09:44:06.324Z,1.90
2022-12-28T09:45:06.324Z,2.50
2022-12-28T09:46:06.278Z,2.80
2022-12-28T09:47:06.231Z,2.80
2022-12-28T09:48:06.255Z,3.20
2022-12-28T09:49:06.211Z,1.90
2022-12-28T09:50:06.216Z,2.10
2022-12-28T09:51:06.190Z,1.90
2022-12-28T09:52:06.183Z,3.80
2022-12-28T09:53:06.188Z,4.40
2022-12-28T09:54:06.141Z,2.70
2022-12-28T09:55:06.149Z,3.30
2022-12-28T09:56:06.101Z,3.20
2022-12-28T09:57:06.130Z,3.10
2022-12-28T09:58:06.138Z,2.80
2022-12-28T09:59:06.125Z,3.30
2022-12-28T10:00:06.029Z,2.70
2022-12-28T10:01:06.109Z,2.10
2022-12-28T10:02:06.167Z,2.80
2022-12-28T10:03:06.090Z,2.70
2022-12-28T10:04:06.069Z,3.00
2022-12-28T10:05:17.252Z,2.50
2022-12-28T10:06:06.030Z,2.60
2022-12-28T10:07:16.027Z,2.90
2022-12-28T10:08:05.963Z,3.40
2022-12-28T10:09:06.040Z,2.40
2022-12-28T10:10:06.012Z,2.90
2022-12-28T10:11:05.969Z,4.20
2022-12-28T10:12:05.906Z,2.70
2022-12-28T10:13:09.400Z,3.20
2022-12-28T10:14:06.946Z,3.00
2022-12-28T10:15:05.878Z,3.40
2022-12-28T10:16:05.944Z,2.30
2022-12-28T10:17:05.843Z,2.70
2022-12-28T10:18:05.837Z,2.50
2022-12-28T10:19:05.918Z,2.60
2022-12-28T10:20:05.842Z,2.20
2022-12-28T10:21:05.788Z,5.20
2022-12-28T10:22:05.881Z,6.70
2022-12-28T10:23:05.728Z,3.20
2022-12-28T10:24:31.050Z,2.00
2022-12-28T10:25:06.817Z,3.50
2022-12-28T10:26:05.718Z,2.50
2022-12-28T10:27:05.805Z,3.40
2022-12-28T10:28:05.786Z,3.20
2022-12-28T10:29:05.717Z,2.90
2022-12-28T10:30:05.697Z,3.00
2022-12-28T10:31:05.763Z,2.60
2022-12-28T10:32:05.668Z,3.10
2022-12-28T10:33:07.738Z,4.20
2022-12-28T10:34:05.800Z,3.30
2022-12-28T10:35:05.637Z,2.70
2022-12-28T10:36:05.643Z,1.80
2022-12-28T10:37:05.691Z,2.90
2022-12-28T10:38:05.587Z,1.60
2022-12-28T10:39:05.531Z,3.20
2022-12-28T10:40:05.599Z,2.40
2022-12-28T10:41:05.522Z,3.90
2022-12-28T10:42:05.541Z,3.20
2022-12-28T10:43:10.492Z,2.90
2022-12-28T10:44:37.951Z,2.90
2022-12-28T10:45:06.548Z,4.50
2022-12-28T10:46:05.558Z,1.70
2022-12-28T10:47:05.533Z,4.40
2022-12-28T10:48:05.661Z,1.80
2022-12-28T10:49:07.732Z,3.50
2022-12-28T10:51:06.666Z,3.00
2022-12-28T10:52:05.372Z,1.70
2022-12-28T10:53:05.399Z,3.60
2022-12-28T10:54:05.364Z,2.00
2022-12-28T10:55:08.281Z,2.40
2022-12-28T10:56:05.338Z,2.10
2022-12-28T10:57:05.380Z,2.20
2022-12-28T10:58:33.340Z,3.00
2022-12-28T10:59:06.321Z,2.80
2022-12-28T11:00:05.381Z,3.00
2022-12-28T11:01:05.395Z,3.10
2022-12-28T11:02:05.342Z,2.50
2022-12-28T11:03:05.496Z,2.90
2022-12-28T11:04:05.297Z,2.00
2022-12-28T11:05:05.210Z,3.70
2022-12-28T11:06:05.189Z,2.20
2022-12-28T11:07:05.144Z,3.90
2022-12-28T11:08:05.156Z,2.70
2022-12-28T11:09:05.315Z,5.70
2022-12-28T11:10:05.121Z,4.20
2022-12-28T11:11:05.157Z,1.80
2022-12-28T11:12:05.169Z,3.10
2022-12-28T11:13:05.435Z,3.20
2022-12-28T11:14:37.876Z,4.10
2022-12-28T11:15:05.215Z,2.50
2022-12-28T11:16:05.152Z,1.90
2022-12-28T11:17:05.157Z,1.70
2022-12-28T11:18:05.099Z,4.00
2022-12-28T11:19:05.153Z,2.70
2022-12-28T11:21:14.868Z,4.80
2022-12-28T11:22:14.862Z,4.60
2022-12-28T11:23:14.897Z,3.20
2022-12-28T11:24:14.894Z,2.40
2022-12-28T11:25:15.176Z,3.90
2022-12-28T11:26:14.770Z,2.90
2022-12-28T11:27:14.831Z,3.40
2022-12-28T11:28:14.917Z,2.90
2022-12-28T11:29:14.741Z,2.40
2022-12-28T11:30:17.446Z,3.30
2022-12-28T11:31:14.854Z,3.40
2022-12-28T11:32:14.747Z,3.50
2022-12-28T11:33:14.759Z,4.70
2022-12-28T11:34:14.847Z,1.70
2022-12-28T11:35:14.710Z,4.00
2022-12-28T11:36:14.739Z,3.20
2022-12-28T11:37:14.757Z,4.20
2022-12-28T11:38:14.642Z,3.40
2022-12-28T11:39:14.732Z,3.90
2022-12-28T11:40:14.674Z,2.10
2022-12-28T11:41:14.676Z,2.60
2022-12-28T11:43:15.595Z,4.20
2022-12-28T11:44:14.604Z,3.50
2022-12-28T11:45:14.566Z,1.80
2022-12-28T11:46:14.666Z,1.90
2022-12-28T11:47:14.708Z,2.20
2022-12-28T11:48:14.558Z,3.90
2022-12-28T11:49:14.554Z,1.90
2022-12-28T11:50:14.659Z,2.40
2022-12-28T11:51:14.468Z,1.60
2022-12-28T11:52:14.438Z,3.30
2022-12-28T11:53:14.469Z,4.30
2022-12-28T11:54:14.541Z,2.80
2022-12-28T11:55:14.471Z,1.70
2022-12-28T11:56:14.440Z,3.00
2022-12-28T11:57:14.511Z,4.10
2022-12-28T11:58:14.374Z,1.60
2022-12-28T11:59:14.370Z,3.10
2022-12-28T12:00:19.960Z,3.60
2022-12-28T12:01:15.364Z,3.70
2022-12-28T12:02:14.346Z,2.80
2022-12-28T12:03:14.358Z,2.40
2022-12-28T12:04:14.482Z,3.20
2022-12-28T12:05:14.322Z,3.60
2022-12-28T12:06:14.373Z,3.30
2022-12-28T12:07:14.255Z,2.30
2022-12-28T12:08:14.319Z,3.10
2022-12-28T12:09:28.447Z,2.60
2022-12-28T12:10:14.254Z,2.90
2022-12-28T12:11:14.390Z,1.30
2022-12-28T12:12:17.808Z,2.50
2022-12-28T12:13:14.206Z,2.60
2022-12-28T12:14:14.244Z,1.50
2022-12-28T12:15:14.162Z,2.70
2022-12-28T12:16:14.244Z,2.40
2022-12-28T12:17:14.328Z,2.30
2022-12-28T12:18:14.111Z,2.90
2022-12-28T12:19:14.153Z,2.70
2022-12-28T12:20:14.206Z,2.50
2022-12-28T12:21:16.227Z,3.00
2022-12-28T12:22:14.088Z,1.70
2022-12-28T12:23:14.040Z,2.60
2022-12-28T12:24:14.109Z,1.70
2022-12-28T12:25:14.080Z,1.90
2022-12-28T12:26:14.049Z,4.10
2022-12-28T12:27:14.113Z,1.20
2022-12-28T12:28:18.609Z,3.10
2022-12-28T12:29:13.957Z,1.40
2022-12-28T12:30:13.959Z,2.30
2022-12-28T12:31:14.027Z,1.70
2022-12-28T12:32:13.929Z,2.10
2022-12-28T12:33:13.900Z,2.10
2022-12-28T12:34:19.253Z,1.00
2022-12-28T12:35:14.926Z,2.60
2022-12-28T12:36:13.967Z,2.60
2022-12-28T12:37:13.865Z,1.80
2022-12-28T12:38:13.954Z,2.30
2022-12-28T12:39:13.877Z,2.80
2022-12-28T12:40:13.792Z,2.60
2022-12-28T12:41:21.484Z,4.70
2022-12-28T12:42:13.830Z,4.60
2022-12-28T12:43:13.831Z,2.80
2022-12-28T12:44:13.872Z,2.60
2022-12-28T12:45:13.831Z,3.30
2022-12-28T12:46:13.751Z,1.80
2022-12-28T12:47:13.758Z,3.00
2022-12-28T12:48:13.840Z,3.00
2022-12-28T12:49:13.676Z,5.70
2022-12-28T12:50:13.724Z,3.20
2022-12-28T12:51:13.669Z,1.80
2022-12-28T12:52:13.685Z,2.30
2022-12-28T12:53:13.686Z,3.00
2022-12-28T12:54:13.643Z,4.80
2022-12-28T12:55:13.682Z,2.50
2022-12-28T12:56:13.615Z,3.00
2022-12-28T12:57:13.601Z,3.50
2022-12-28T12:58:13.583Z,3.30
2022-12-28T12:59:13.599Z,2.40
2022-12-28T13:00:15.976Z,2.90
2022-12-28T13:01:13.626Z,4.00
2022-12-28T13:02:13.830Z,2.60
2022-12-28T13:03:13.582Z,2.10
2022-12-28T13:04:48.040Z,2.30
2022-12-28T13:05:13.529Z,2.60
2022-12-28T13:06:13.472Z,2.10
2022-12-28T13:07:50.113Z,2.70
2022-12-28T13:08:13.447Z,2.80
2022-12-28T13:09:13.459Z,3.20
2022-12-28T13:10:13.462Z,2.50
2022-12-28T13:12:22.898Z,3.50
2022-12-28T13:13:22.776Z,3.30
2022-12-28T13:14:22.739Z,1.90
2022-12-28T13:15:22.741Z,3.90
2022-12-28T13:16:22.765Z,3.00
2022-12-28T13:17:22.779Z,2.40
2022-12-28T13:19:23.773Z,4.50
2022-12-28T13:20:22.724Z,4.00
2022-12-28T13:21:22.685Z,3.50
2022-12-28T13:22:22.649Z,3.40
2022-12-28T13:23:22.608Z,3.10
2022-12-28T13:24:22.622Z,2.20
2022-12-28T13:25:22.697Z,1.70
2022-12-28T13:26:22.704Z,2.20